createdAt,value
2023-04-24T00:02:20.877Z,11.54
2023-04-24T00:07:43.433Z,11.44
2023-04-24T00:13:05.836Z,11.50
2023-04-24T00:18:28.177Z,11.48
2023-04-24T00:23:50.480Z,11.45
2023-04-24T00:29:12.723Z,11.41
2023-04-24T00:34:35.198Z,11.39
2023-04-24T00:39:57.643Z,11.36
2023-04-24T00:45:21.065Z,11.30
2023-04-24T00:50:44.101Z,11.26
2023-04-24T00:56:07.190Z,11.29
2023-04-24T01:01:31.616Z,11.31
2023-04-24T01:06:55.635Z,11.30
2023-04-24T01:12:17.973Z,11.22
2023-04-24T01:17:41.653Z,11.25
2023-04-24T01:23:04.151Z,11.31
2023-04-24T01:28:26.520Z,11.24
2023-04-24T01:33:50.278Z,11.27
2023-04-24T01:39:13.755Z,11.25
2023-04-24T01:44:37.079Z,11.18
2023-04-24T01:49:59.691Z,11.17
2023-04-24T01:55:25.639Z,11.14
2023-04-24T02:00:48.619Z,11.16
2023-04-24T02:06:11.137Z,11.14
2023-04-24T02:11:33.477Z,11.19
2023-04-24T02:16:56.363Z,11.20
2023-04-24T02:22:19.112Z,11.22
2023-04-24T02:27:41.400Z,11.20
2023-04-24T02:33:04.661Z,11.19
2023-04-24T02:38:26.937Z,11.23
2023-04-24T02:43:49.260Z,11.27
2023-04-24T02:49:13.739Z,11.31
2023-04-24T02:54:36.196Z,11.27
2023-04-24T02:59:58.473Z,11.22
2023-04-24T03:05:21.415Z,11.28
2023-04-24T03:10:44.515Z,11.32
2023-04-24T03:16:07.793Z,11.34
2023-04-24T03:21:30.138Z,11.32
2023-04-24T03:26:53.089Z,11.23
2023-04-24T03:32:15.372Z,11.24
2023-04-24T03:37:37.728Z,11.28
2023-04-24T03:43:00.066Z,11.27
2023-04-24T03:48:22.481Z,11.26
2023-04-24T03:53:44.752Z,11.30
2023-04-24T03:59:07.027Z,11.37
2023-04-24T04:04:29.588Z,11.36
2023-04-24T04:09:52.155Z,11.38
2023-04-24T04:15:14.696Z,11.35
2023-04-24T04:20:37.110Z,11.37
2023-04-24T04:25:59.488Z,11.37
2023-04-24T04:31:22.297Z,11.38
2023-04-24T04:36:45.453Z,11.40
2023-04-24T04:42:07.997Z,11.42
2023-04-24T04:47:32.525Z,11.44
2023-04-24T04:52:54.927Z,11.50
2023-04-24T04:58:17.203Z,11.52
2023-04-24T05:03:39.561Z,11.67
2023-04-24T05:09:02.132Z,11.75
2023-04-24T05:14:24.445Z,11.95
2023-04-24T05:19:47.761Z,12.09
2023-04-24T05:25:10.176Z,12.15
2023-04-24T05:30:33.181Z,12.32
2023-04-24T05:35:55.967Z,12.50
2023-04-24T05:41:18.448Z,12.71
2023-04-24T05:46:40.797Z,12.76
2023-04-24T05:52:04.954Z,12.89
2023-04-24T05:57:27.293Z,13.11
2023-04-24T06:02:50.341Z,13.26
2023-04-24T06:08:13.080Z,13.43
2023-04-24T06:13:35.738Z,13.56
2023-04-24T06:19:00.425Z,13.46
2023-04-24T06:24:24.496Z,13.59
2023-04-24T06:29:47.462Z,13.62
2023-04-24T06:35:13.086Z,13.71
2023-04-24T06:40:36.998Z,13.72
2023-04-24T06:46:02.131Z,13.92
2023-04-24T06:51:24.772Z,14.27
2023-04-24T06:56:49.147Z,14.37
2023-04-24T07:02:11.485Z,14.41
2023-04-24T07:07:34.239Z,14.54
2023-04-24T07:12:58.215Z,14.71
2023-04-24T07:18:21.044Z,14.98
2023-04-24T07:23:43.959Z,15.12
2023-04-24T07:29:07.200Z,15.41
2023-04-24T07:34:31.181Z,15.59
2023-04-24T07:40:07.351Z,15.90
2023-04-24T07:45:29.950Z,15.91
2023-04-24T07:50:52.573Z,15.74
2023-04-24T07:56:16.155Z,15.82
2023-04-24T08:01:39.590Z,16.09
2023-04-24T08:07:01.901Z,16.17
2023-04-24T08:12:24.244Z,16.44
2023-04-24T08:17:47.804Z,16.80
2023-04-24T08:23:10.844Z,16.80
2023-04-24T08:28:35.324Z,16.77
2023-04-24T08:33:58.258Z,16.79
2023-04-24T08:39:21.936Z,16.85
2023-04-24T08:44:46.020Z,16.83
2023-04-24T08:50:11.166Z,16.89
2023-04-24T08:55:34.860Z,17.09
2023-04-24T09:00:59.438Z,17.18
2023-04-24T09:06:24.112Z,17.11
2023-04-24T09:11:47.290Z,16.97
2023-04-24T09:17:11.135Z,16.99
2023-04-24T09:22:37.547Z,16.94
2023-04-24T09:28:01.475Z,16.63
2023-04-24T09:33:37.335Z,16.29
2023-04-24T09:39:01.847Z,16.16
2023-04-24T09:44:34.021Z,16.06
2023-04-24T09:49:57.105Z,16.16
2023-04-24T09:55:23.344Z,16.57
2023-04-24T10:00:49.050Z,16.91
2023-04-24T10:06:14.627Z,17.55
2023-04-24T10:11:38.994Z,18.25
2023-04-24T10:17:03.330Z,19.12
2023-04-24T10:22:27.511Z,18.12
2023-04-24T10:27:52.738Z,18.00
2023-04-24T10:33:17.905Z,17.90
2023-04-24T10:38:45.949Z,18.11
2023-04-24T10:44:20.152Z,18.67
2023-04-24T10:49:50.749Z,18.30
2023-04-24T10:55:16.687Z,18.50
2023-04-24T11:00:40.663Z,18.77
2023-04-24T11:06:18.773Z,19.20
2023-04-24T11:11:44.036Z,19.30
2023-04-24T11:17:13.324Z,19.03
2023-04-24T11:22:37.947Z,18.60
2023-04-24T11:28:12.290Z,18.40
2023-04-24T11:33:36.957Z,18.29
2023-04-24T11:39:00.830Z,18.90
2023-04-24T11:44:27.913Z,18.91
2023-04-24T11:49:51.650Z,19.43
2023-04-24T11:55:29.686Z,19.83
2023-04-24T12:00:56.492Z,20.24
2023-04-24T12:06:27.537Z,20.26
2023-04-24T12:11:52.984Z,19.90
2023-04-24T12:17:17.417Z,19.83
2023-04-24T12:22:58.178Z,19.24
2023-04-24T12:28:27.118Z,19.78
2023-04-24T12:33:54.267Z,20.78
2023-04-24T12:39:24.870Z,20.78
2023-04-24T12:44:52.813Z,22.21
2023-04-24T12:50:17.268Z,21.59
2023-04-24T12:55:41.955Z,22.06
2023-04-24T13:01:06.512Z,22.16
2023-04-24T13:06:32.074Z,20.03
2023-04-24T13:11:55.780Z,19.33
2023-04-24T13:17:20.882Z,19.38
2023-04-24T13:22:45.899Z,19.08
2023-04-24T13:28:10.530Z,18.61
2023-04-24T13:33:35.088Z,18.39
2023-04-24T13:38:59.011Z,18.38
2023-04-24T13:44:24.900Z,18.62
2023-04-24T13:49:48.628Z,18.98
2023-04-24T13:55:12.273Z,19.03
2023-04-24T14:00:36.039Z,19.16
2023-04-24T14:06:00.311Z,18.77
2023-04-24T14:11:26.475Z,18.44
2023-04-24T14:16:51.033Z,17.96
2023-04-24T14:22:15.892Z,17.98
2023-04-24T14:27:41.671Z,17.94
2023-04-24T14:33:06.168Z,17.87
2023-04-24T14:38:31.472Z,17.85
2023-04-24T14:43:56.361Z,17.92
2023-04-24T14:49:20.255Z,17.79
2023-04-24T14:54:44.709Z,18.33
2023-04-24T15:00:10.352Z,18.35
2023-04-24T15:05:35.747Z,18.53
2023-04-24T15:11:00.155Z,18.38
2023-04-24T15:16:24.704Z,17.99
2023-04-24T15:21:49.856Z,17.89
2023-04-24T15:27:16.855Z,18.07
2023-04-24T15:32:41.880Z,18.08
2023-04-24T15:38:07.238Z,18.11
2023-04-24T15:43:33.695Z,18.06
2023-04-24T15:48:58.482Z,17.81
2023-04-24T15:54:22.693Z,17.67
2023-04-24T15:59:47.394Z,17.59
2023-04-24T16:05:12.004Z,17.57
2023-04-24T16:10:35.703Z,17.50
2023-04-24T16:16:01.032Z,17.52
2023-04-24T16:21:25.661Z,17.69
2023-04-24T16:26:50.040Z,17.36
2023-04-24T16:32:14.762Z,17.22
2023-04-24T16:37:39.414Z,17.41
2023-04-24T16:43:04.079Z,17.83
2023-04-24T16:48:28.589Z,17.71
2023-04-24T16:53:53.221Z,17.51
2023-04-24T16:59:17.308Z,17.13
2023-04-24T17:04:40.260Z,16.84
2023-04-24T17:52:44.696Z,11.37
2023-04-24T17:58:11.016Z,11.42
2023-04-24T18:03:33.852Z,11.36
2023-04-24T18:08:56.665Z,11.38
2023-04-24T18:14:19.026Z,11.35
2023-04-24T18:19:41.361Z,11.33
2023-04-24T18:25:04.038Z,11.30
2023-04-24T18:30:28.914Z,11.26
2023-04-24T18:35:51.629Z,11.26
2023-04-24T18:41:14.573Z,11.21
2023-04-24T18:46:39.540Z,11.17
2023-04-24T18:52:02.780Z,11.26
2023-04-24T18:57:25.742Z,11.25
2023-04-24T19:02:48.059Z,11.15
2023-04-24T19:08:10.499Z,11.10
2023-04-24T19:13:33.332Z,11.16
2023-04-24T19:18:56.382Z,11.11
2023-04-24T19:24:21.971Z,11.22
2023-04-24T19:29:44.293Z,11.23
2023-04-24T19:35:07.109Z,11.21
2023-04-24T19:40:30.202Z,11.30
2023-04-24T19:45:52.718Z,11.26
2023-04-24T19:51:16.236Z,11.22
2023-04-24T19:56:39.126Z,11.22
2023-04-24T20:02:01.479Z,11.14
2023-04-24T20:07:23.883Z,11.11
2023-04-24T20:12:47.406Z,11.16
2023-04-24T20:18:09.632Z,11.04
2023-04-24T20:23:32.575Z,11.02
2023-04-24T20:28:54.835Z,11.03
2023-04-24T20:34:17.176Z,10.87
2023-04-24T20:39:39.659Z,10.83
2023-04-24T20:45:01.970Z,10.81
2023-04-24T20:50:25.571Z,10.74
2023-04-24T20:55:48.061Z,10.70
2023-04-24T21:01:10.384Z,10.76
2023-04-24T21:06:32.893Z,10.75
2023-04-24T21:11:55.317Z,10.78
2023-04-24T21:17:17.604Z,10.76
2023-04-24T21:22:39.828Z,10.81
2023-04-24T21:28:02.204Z,10.85
2023-04-24T21:33:25.073Z,10.90
2023-04-24T21:38:47.915Z,10.88
2023-04-24T21:44:10.222Z,10.92
2023-04-24T21:49:32.461Z,10.85
2023-04-24T21:54:54.772Z,10.84
2023-04-24T22:00:18.341Z,10.78
2023-04-24T22:05:41.355Z,10.73
2023-04-24T22:11:07.146Z,10.61
2023-04-24T22:16:31.046Z,10.55
2023-04-24T22:21:53.717Z,10.51
2023-04-24T22:27:16.041Z,10.49
2023-04-24T22:32:39.175Z,10.49
2023-04-24T22:38:04.109Z,10.45
2023-04-24T22:43:26.669Z,10.38
2023-04-24T22:48:51.954Z,10.37
2023-04-24T22:54:15.926Z,10.30
2023-04-24T22:59:38.238Z,10.28
2023-04-24T23:05:00.589Z,10.25
2023-04-24T23:10:23.648Z,10.25
2023-04-24T23:15:46.067Z,10.22
2023-04-24T23:21:08.377Z,10.16
2023-04-24T23:26:30.726Z,10.14
2023-04-24T23:31:53.020Z,10.09
2023-04-24T23:37:17.292Z,10.09
2023-04-24T23:42:39.551Z,10.06
2023-04-24T23:48:01.991Z,10.04
2023-04-24T23:53:24.464Z,10.02
2023-04-24T23:58:49.595Z,9.99
